Time;durP1;ratioP1;P1;durP2;ratioP2;P2;SDS_P1;SDS_P2;PMS_P1;PMS_P2;Temp;Humidity;BMP_temperature;BMP_pressure;BME280_temperature;BME280_humidity;BME280_pressure;Samples;Min_cycle;Max_cycle;Signal;HPM_P1;HPM_P2
2021/04/06 00:00:12;;;;;;;;;;;;;;;1.95;59.84;99188.45;1857095;77;20486;-72
2021/04/06 00:02:40;;;;;;;;;;;;;;;1.92;59.90;99195.14;1837946;77;20208;-71
2021/04/06 00:05:10;;;;;;;;;;;;;;;1.91;59.98;99189.56;1848824;77;20478;-71
2021/04/06 00:07:37;;;;;;;;;;;;;;;1.90;60.06;99187.89;1854881;77;20483;-72
2021/04/06 00:10:08;;;;;;;;;;;;;;;1.89;60.15;99187.53;1833387;77;22134;-72
2021/04/06 00:12:36;;;;;;;;;;;;;;;1.88;60.22;99185.39;1850652;77;20373;-72
2021/04/06 00:15:08;;;;;;;;;;;;;;;1.88;60.32;99181.95;1842245;77;20494;-71
2021/04/06 00:17:35;;;;;;;;;;;;;;;1.89;60.39;99184.45;1841735;77;20292;-72
2021/04/06 00:20:04;;;;;;;;;;;;;;;1.90;60.46;99179.62;1839652;77;20404;-72
2021/04/06 00:22:33;;;;;;;;;;;;;;;1.91;60.56;99181.75;1860668;77;22952;-72
2021/04/06 00:25:02;;;;;;;;;;;;;;;1.94;60.66;99173.30;1865266;77;20389;-72
2021/04/06 00:27:31;;;;;;;;;;;;;;;1.97;60.69;99174.40;1865647;77;20221;-72
2021/04/06 00:30:06;;;;;;;;;;;;;;;2.01;60.75;99176.33;1843278;77;21441;-72
2021/04/06 00:32:33;;;;;;;;;;;;;;;2.02;60.78;99175.39;1842078;77;20256;-73
2021/04/06 00:35:02;;;;;;;;;;;;;;;2.03;60.81;99183.61;1841992;77;21725;-73
2021/04/06 00:37:29;;;;;;;;;;;;;;;2.05;60.84;99178.30;1832829;77;20362;-72
2021/04/06 00:40:05;;;;;;;;;;;;;;;2.04;60.88;99169.65;1844469;77;20990;-73
2021/04/06 00:42:33;;;;;;;;;;;;;;;2.05;61.03;99176.99;1816467;77;20476;-72
2021/04/06 00:45:09;;;;;;;;;;;;;;;2.04;61.09;99178.77;1847962;77;20485;-72
2021/04/06 00:47:36;;;;;;;;;;;;;;;2.03;61.16;99168.41;1851969;77;22046;-72
2021/04/06 00:50:07;;;;;;;;;;;;;;;2.01;61.30;99169.82;1856007;77;20217;-72
2021/04/06 00:52:45;;;;;;;;;;;;;;;1.98;61.45;99176.53;1856091;77;20804;-72
2021/04/06 00:55:16;;;;;;;;;;;;;;;1.95;61.59;99175.44;1841097;77;20459;-72
2021/04/06 00:57:43;;;;;;;;;;;;;;;1.92;61.75;99175.61;1830193;77;20488;-71
2021/04/06 01:00:25;;;;;;;;;;;;;;;1.90;61.97;99182.69;1845812;77;22075;-72
2021/04/06 01:03:06;;;;;;;;;;;;;;;1.88;62.23;99173.67;1858147;77;20389;-71
2021/04/06 01:05:36;;;;;;;;;;;;;;;1.85;62.54;99171.27;1825032;78;20214;-71
2021/04/06 01:08:04;;;;;;;;;;;;;;;1.84;62.96;99163.09;1836578;77;20764;-71
2021/04/06 01:10:33;;;;;;;;;;;;;;;1.88;63.30;99166.33;1814297;77;20396;-72
2021/04/06 01:13:01;;;;;;;;;;;;;;;1.91;63.62;99170.03;1856248;77;22068;-71
2021/04/06 01:15:29;;;;;;;;;;;;;;;1.92;63.87;99165.20;1830482;77;20387;-72
2021/04/06 01:17:56;;;;;;;;;;;;;;;1.94;63.99;99165.95;1851663;77;20214;-72
2021/04/06 01:20:25;;;;;;;;;;;;;;;1.94;64.25;99164.66;1844326;77;21253;-72
2021/04/06 01:22:54;;;;;;;;;;;;;;;1.93;64.33;99157.31;1853241;77;20499;-72
2021/04/06 01:25:25;;;;;;;;;;;;;;;1.93;64.45;99162.95;1836711;77;21892;-72
2021/04/06 01:28:08;;;;;;;;;;;;;;;1.91;64.71;99163.53;1846381;77;20215;-72
2021/04/06 01:30:46;;;;;;;;;;;;;;;1.89;64.82;99164.93;1844628;77;20241;-71
2021/04/06 01:33:25;;;;;;;;;;;;;;;1.86;65.13;99169.50;1843890;77;21342;-72
2021/04/06 01:35:59;;;;;;;;;;;;;;;1.82;65.27;99175.81;1836381;77;20212;-72
2021/04/06 01:38:28;;;;;;;;;;;;;;;1.78;65.43;99172.58;1840150;77;22945;-73
2021/04/06 01:40:59;;;;;;;;;;;;;;;1.73;65.52;99171.55;1839272;77;20366;-72
2021/04/06 01:43:29;;;;;;;;;;;;;;;1.70;65.65;99176.13;1837552;77;20206;-73
2021/04/06 01:46:03;;;;;;;;;;;;;;;1.66;65.82;99170.75;1843330;77;20265;-73
2021/04/06 01:48:32;;;;;;;;;;;;;;;1.61;66.01;99169.72;1837155;77;20234;-73
2021/04/06 01:51:00;;;;;;;;;;;;;;;1.56;66.16;99176.98;1844406;76;21952;-73
2021/04/06 01:53:27;;;;;;;;;;;;;;;1.53;66.31;99182.36;1843668;77;20221;-72
2021/04/06 01:56:02;;;;;;;;;;;;;;;1.51;66.60;99179.02;1848901;77;20211;-73
2021/04/06 01:58:30;;;;;;;;;;;;;;;1.49;66.68;99178.28;1840436;77;20444;-73
2021/04/06 02:03:29;;;;;;;;;;;;;;;1.44;67.23;99174.65;1836580;77;22123;-73
2021/04/06 02:05:57;;;;;;;;;;;;;;;1.42;67.38;99171.31;1831525;77;20212;-73
2021/04/06 02:08:27;;;;;;;;;;;;;;;1.40;67.58;99171.04;1840011;77;20226;-73
2021/04/06 02:10:56;;;;;;;;;;;;;;;1.37;67.76;99167.34;1837212;77;20223;-72
2021/04/06 02:13:24;;;;;;;;;;;;;;;1.37;68.13;99162.13;1836402;77;20214;-72
2021/04/06 02:16:01;;;;;;;;;;;;;;;1.37;68.37;99161.67;1834948;77;20966;-72
2021/04/06 02:18:30;;;;;;;;;;;;;;;1.38;68.66;99163.80;1789098;78;21353;-72
2021/04/06 02:20:59;;;;;;;;;;;;;;;1.39;69.05;99163.70;1839951;77;20224;-72
2021/04/06 02:23:28;;;;;;;;;;;;;;;1.41;69.31;99156.63;1833499;77;20466;-71
2021/04/06 02:25:56;;;;;;;;;;;;;;;1.42;69.42;99156.17;1830720;77;20927;-72
2021/04/06 02:28:24;;;;;;;;;;;;;;;1.43;69.52;99157.38;1843124;77;22138;-72
2021/04/06 02:30:55;;;;;;;;;;;;;;;1.44;69.85;99151.70;1845816;77;20406;-72
2021/04/06 02:33:25;;;;;;;;;;;;;;;1.45;69.89;99159.91;1857323;76;20228;-72
2021/04/06 02:35:59;;;;;;;;;;;;;;;1.46;70.07;99153.77;1847970;77;21355;-73
2021/04/06 02:38:29;;;;;;;;;;;;;;;1.46;70.25;99152.47;1847751;77;20217;-76
2021/04/06 02:41:15;;;;;;;;;;;;;;;1.48;70.42;99145.86;1846692;77;22049;-72
2021/04/06 02:43:53;;;;;;;;;;;;;;;1.49;70.55;99148.36;1855523;77;20218;-72
2021/04/06 02:46:22;;;;;;;;;;;;;;;1.50;70.77;99151.34;1857049;76;20233;-72
2021/04/06 02:48:50;;;;;;;;;;;;;;;1.51;70.93;99151.70;1864125;77;20488;-72
2021/04/06 02:51:18;;;;;;;;;;;;;;;1.49;70.96;99154.87;1856377;76;20295;-72
2021/04/06 02:53:48;;;;;;;;;;;;;;;1.49;71.06;99147.53;1865266;77;22055;-72
2021/04/06 02:56:32;;;;;;;;;;;;;;;1.48;71.15;99148.47;1862012;77;21256;-72
2021/04/06 02:59:19;;;;;;;;;;;;;;;1.44;71.21;99148.63;1863779;76;20221;-72
2021/04/06 03:01:50;;;;;;;;;;;;;;;1.42;71.30;99143.16;1816483;77;20451;-72
2021/04/06 03:04:21;;;;;;;;;;;;;;;1.39;71.35;99142.06;1846793;77;20178;-72
2021/04/06 03:06:51;;;;;;;;;;;;;;;1.38;71.48;99145.59;1847816;77;22124;-72
2021/04/06 03:09:20;;;;;;;;;;;;;;;1.35;71.59;99139.25;1845146;77;20368;-72
2021/04/06 03:11:49;;;;;;;;;;;;;;;1.33;71.68;99142.42;1863786;77;20209;-72
2021/04/06 03:14:19;;;;;;;;;;;;;;;1.31;71.74;99144.28;1857336;76;20471;-72
2021/04/06 03:16:50;;;;;;;;;;;;;;;1.29;71.77;99146.98;1853917;77;20393;-72
2021/04/06 03:19:18;;;;;;;;;;;;;;;1.26;71.80;99141.98;1856539;77;21780;-73
2021/04/06 03:21:48;;;;;;;;;;;;;;;1.22;71.85;99143.08;1863411;77;20475;-73
2021/04/06 03:24:16;;;;;;;;;;;;;;;1.20;71.84;99146.70;1864350;77;20212;-73
2021/04/06 03:26:44;;;;;;;;;;;;;;;1.15;71.93;99143.91;1846686;77;21214;-72
2021/04/06 03:29:13;;;;;;;;;;;;;;;1.12;72.16;99140.66;1836515;77;20607;-75
2021/04/06 03:31:42;;;;;;;;;;;;;;;1.10;72.36;99145.96;1853011;76;21892;-74
2021/04/06 03:34:10;;;;;;;;;;;;;;;1.11;72.62;99141.13;1863005;76;21152;-73
2021/04/06 03:36:37;;;;;;;;;;;;;;;1.14;72.85;99140.94;1832782;77;20233;-72
2021/04/06 03:39:06;;;;;;;;;;;;;;;1.19;73.06;99144.58;1820627;77;20929;-74
2021/04/06 03:41:34;;;;;;;;;;;;;;;1.21;73.27;99144.48;1824564;77;20381;-73
2021/04/06 03:44:06;;;;;;;;;;;;;;;1.25;73.37;99149.85;1868630;76;22052;-73
2021/04/06 03:46:34;;;;;;;;;;;;;;;1.27;73.51;99157.13;1864279;77;20447;-73
2021/04/06 03:49:16;;;;;;;;;;;;;;;1.28;73.52;99158.79;1846700;77;20473;-74
2021/04/06 03:52:01;;;;;;;;;;;;;;;1.29;73.59;99166.49;1823547;76;20474;-74
2021/04/06 03:54:47;;;;;;;;;;;;;;;1.29;73.65;99167.80;1835048;76;20304;-74
2021/04/06 03:57:23;;;;;;;;;;;;;;;1.29;73.65;99174.30;1833813;76;22116;-74
2021/04/06 03:59:51;;;;;;;;;;;;;;;1.29;73.69;99176.06;1860749;76;20374;-73
2021/04/06 04:02:19;;;;;;;;;;;;;;;1.27;73.67;99175.33;1863700;76;20288;-72
2021/04/06 04:04:46;;;;;;;;;;;;;;;1.27;73.70;99172.27;1844808;76;20447;-72
2021/04/06 04:07:15;;;;;;;;;;;;;;;1.25;73.75;99178.46;1860932;76;20209;-73
2021/04/06 04:09:42;;;;;;;;;;;;;;;1.21;73.91;99176.52;1862890;76;22041;-74
2021/04/06 04:12:10;;;;;;;;;;;;;;;1.21;73.98;99179.59;1786314;79;20487;-73
2021/04/06 04:14:37;;;;;;;;;;;;;;;1.23;74.21;99178.56;1798633;79;20213;-73
2021/04/06 04:17:06;;;;;;;;;;;;;;;1.26;74.44;99175.80;1796560;79;21359;-71
2021/04/06 04:19:34;;;;;;;;;;;;;;;1.29;74.50;99170.86;1795561;80;20267;-72
2021/04/06 04:22:03;;;;;;;;;;;;;;;1.34;74.60;99179.20;1805360;79;22068;-72
2021/04/06 04:24:31;;;;;;;;;;;;;;;1.38;74.79;99172.91;1793626;79;20373;-72
2021/04/06 04:26:59;;;;;;;;;;;;;;;1.42;74.81;99171.78;1800382;78;20483;-72
2021/04/06 04:29:26;;;;;;;;;;;;;;;1.46;75.02;99177.19;1794383;80;20311;-72
2021/04/06 04:31:54;;;;;;;;;;;;;;;1.51;75.04;99173.81;1777889;80;20500;-72
2021/04/06 04:34:21;;;;;;;;;;;;;;;1.57;75.16;99171.32;1793178;80;24220;-70
2021/04/06 04:36:49;;;;;;;;;;;;;;;1.62;75.31;99176.59;1786426;80;20714;-73
2021/04/06 04:39:16;;;;;;;;;;;;;;;1.69;75.49;99173.16;1812362;78;20211;-73
2021/04/06 04:41:45;;;;;;;;;;;;;;;1.75;75.59;99172.78;1778401;80;20261;-70
2021/04/06 04:44:13;;;;;;;;;;;;;;;1.83;75.60;99170.51;1774164;80;20214;-69
2021/04/06 04:46:41;;;;;;;;;;;;;;;1.90;75.67;99166.59;1819272;78;21888;-69
2021/04/06 04:49:08;;;;;;;;;;;;;;;1.96;75.75;99175.34;1776497;80;20448;-70
2021/04/06 04:51:35;;;;;;;;;;;;;;;2.03;75.75;99173.19;1783858;80;20218;-69
2021/04/06 04:54:04;;;;;;;;;;;;;;;2.09;75.80;99168.88;1790098;80;20438;-69
2021/04/06 04:56:31;;;;;;;;;;;;;;;2.17;75.76;99167.92;1827822;78;20214;-69
2021/04/06 04:58:58;;;;;;;;;;;;;;;2.25;75.75;99167.44;1822591;78;22509;-69
2021/04/06 05:01:25;;;;;;;;;;;;;;;2.32;75.67;99162.64;1782737;78;20332;-69
2021/04/06 05:03:52;;;;;;;;;;;;;;;2.38;75.62;99163.56;1778450;79;20218;-70
2021/04/06 05:06:20;;;;;;;;;;;;;;;2.43;75.57;99168.02;1769963;79;20464;-70
2021/04/06 05:08:47;;;;;;;;;;;;;;;2.51;75.58;99160.51;1795055;79;20217;-70
2021/04/06 05:11:14;;;;;;;;;;;;;;;2.61;75.53;99168.59;1782223;79;22019;-70
2021/04/06 05:13:43;;;;;;;;;;;;;;;2.69;75.39;99164.51;1799151;79;21010;-70
2021/04/06 05:16:10;;;;;;;;;;;;;;;2.80;75.29;99165.96;1786415;79;20250;-71
2021/04/06 05:18:38;;;;;;;;;;;;;;;2.91;75.14;99172.23;1782628;80;20467;-69
2021/04/06 05:21:05;;;;;;;;;;;;;;;3.01;75.03;99158.94;1819865;78;20236;-69
2021/04/06 05:23:32;;;;;;;;;;;;;;;3.12;74.88;99156.42;1801109;78;22501;-69
2021/04/06 05:26:00;;;;;;;;;;;;;;;3.23;74.72;99145.25;1786745;80;21279;-70
2021/04/06 05:28:27;;;;;;;;;;;;;;;3.35;74.48;99145.23;1788553;78;20490;-71
2021/04/06 05:30:54;;;;;;;;;;;;;;;3.45;74.06;99142.34;1776551;80;20907;-71
2021/04/06 05:33:23;;;;;;;;;;;;;;;3.53;73.82;99147.03;1805433;78;20244;-72
2021/04/06 05:35:52;;;;;;;;;;;;;;;3.62;73.59;99151.61;1820662;77;22862;-69
2021/04/06 05:38:20;;;;;;;;;;;;;;;3.72;73.29;99148.72;1808610;78;20362;-71
2021/04/06 05:40:50;;;;;;;;;;;;;;;3.83;73.04;99140.11;1819719;78;20229;-72
2021/04/06 05:43:17;;;;;;;;;;;;;;;3.95;72.75;99144.93;1756231;80;21295;-71
2021/04/06 05:45:48;;;;;;;;;;;;;;;4.02;72.36;99144.86;1786471;78;20282;-72
2021/04/06 05:48:16;;;;;;;;;;;;;;;4.07;72.10;99141.45;1812131;78;22984;-68
2021/04/06 05:50:49;;;;;;;;;;;;;;;4.13;71.90;99143.61;1813532;78;20273;-73
2021/04/06 05:53:18;;;;;;;;;;;;;;;4.21;71.81;99144.36;1805156;78;20399;-72
2021/04/06 05:55:45;;;;;;;;;;;;;;;4.33;71.57;99133.48;1803463;78;20472;-72
2021/04/06 05:58:13;;;;;;;;;;;;;;;4.43;71.32;99130.55;1822042;78;20514;-69
2021/04/06 06:00:42;;;;;;;;;;;;;;;4.52;71.02;99127.25;1818693;78;22226;-71
2021/04/06 06:03:10;;;;;;;;;;;;;;;4.61;70.85;99127.88;1821418;78;20273;-71
2021/04/06 06:05:40;;;;;;;;;;;;;;;4.72;70.52;99133.61;1791533;78;20223;-70
2021/04/06 06:08:16;;;;;;;;;;;;;;;4.84;70.39;99130.09;1787661;80;20261;-70
2021/04/06 06:10:43;;;;;;;;;;;;;;;4.97;69.94;99133.91;1815457;78;20927;-71
2021/04/06 06:13:25;;;;;;;;;;;;;;;5.05;69.63;99130.23;1813603;79;20570;-70
2021/04/06 06:16:12;;;;;;;;;;;;;;;5.16;69.51;99131.55;1787806;78;20494;-71
2021/04/06 06:18:59;;;;;;;;;;;;;;;5.29;68.95;99144.52;1825261;78;20416;-70
2021/04/06 06:21:39;;;;;;;;;;;;;;;5.36;68.49;99132.16;1822757;78;20478;-71
2021/04/06 06:24:08;;;;;;;;;;;;;;;5.43;68.17;99131.20;1790289;78;20208;-70
2021/04/06 06:26:36;;;;;;;;;;;;;;;5.51;68.14;99143.23;1820250;78;22058;-69
2021/04/06 06:29:10;;;;;;;;;;;;;;;5.60;67.92;99146.45;1817025;78;20402;-71
2021/04/06 06:31:45;;;;;;;;;;;;;;;5.68;67.67;99157.13;1814166;77;20259;-72
2021/04/06 06:34:32;;;;;;;;;;;;;;;5.75;67.33;99144.39;1786097;78;20309;-72
2021/04/06 06:37:10;;;;;;;;;;;;;;;5.80;67.05;99137.48;1787465;79;20227;-71
2021/04/06 06:40:07;;;;;;;;;;;;;;;5.87;67.22;99143.41;1784248;78;21960;-69
2021/04/06 06:42:38;;;;;;;;;;;;;;;5.99;67.05;99139.03;1791367;78;21255;-68
2021/04/06 06:45:22;;;;;;;;;;;;;;;6.08;66.75;99153.16;1801719;78;20209;-70
2021/04/06 06:47:57;;;;;;;;;;;;;;;6.15;66.63;99150.41;1791872;79;20522;-74
2021/04/06 06:50:26;;;;;;;;;;;;;;;6.23;66.34;99146.22;1800034;79;20261;-72
2021/04/06 06:52:55;;;;;;;;;;;;;;;6.34;66.27;99144.51;1800126;78;22122;-74
2021/04/06 06:55:25;;;;;;;;;;;;;;;6.44;66.03;99151.50;1798137;79;21246;-72
2021/04/06 06:58:01;;;;;;;;;;;;;;;6.53;65.93;99154.68;1803842;79;20393;-72
2021/04/06 07:00:29;;;;;;;;;;;;;;;6.65;65.67;99155.94;1797299;78;20585;-72
2021/04/06 07:02:58;;;;;;;;;;;;;;;6.74;65.23;99169.13;1800592;78;20484;-75
2021/04/06 07:05:27;;;;;;;;;;;;;;;6.82;64.99;99162.77;1795863;78;22778;-72
2021/04/06 07:08:02;;;;;;;;;;;;;;;6.92;65.08;99159.38;1794307;78;20815;-71
2021/04/06 07:10:32;;;;;;;;;;;;;;;7.07;64.50;99168.61;1796491;79;20269;-72
2021/04/06 07:13:08;;;;;;;;;;;;;;;7.18;64.31;99165.91;1792587;78;20312;-72
2021/04/06 07:15:36;;;;;;;;;;;;;;;7.29;64.03;99172.88;1795000;78;20228;-72
2021/04/06 07:18:07;;;;;;;;;;;;;;;7.38;63.61;99172.09;1798848;78;22072;-71
2021/04/06 07:20:38;;;;;;;;;;;;;;;7.39;63.03;99171.95;1794483;78;20342;-70
2021/04/06 07:23:08;;;;;;;;;;;;;;;7.38;63.09;99176.86;1797491;78;20223;-72
2021/04/06 07:25:35;;;;;;;;;;;;;;;7.45;63.06;99174.55;1799901;78;20474;-73
2021/04/06 07:28:03;;;;;;;;;;;;;;;7.57;62.98;99170.03;1800545;79;21050;-71
2021/04/06 07:30:30;;;;;;;;;;;;;;;7.69;62.58;99171.11;1800596;78;23021;-73
2021/04/06 07:32:58;;;;;;;;;;;;;;;7.80;62.54;99172.80;1802340;78;20756;-71
2021/04/06 07:35:25;;;;;;;;;;;;;;;7.94;62.09;99168.50;1801478;79;20221;-75
2021/04/06 07:37:53;;;;;;;;;;;;;;;8.07;61.42;99178.77;1807009;79;20313;-71
2021/04/06 07:40:22;;;;;;;;;;;;;;;8.08;61.11;99159.39;1804448;78;20288;-71
2021/04/06 07:42:49;;;;;;;;;;;;;;;8.06;60.71;99167.90;1800541;79;22112;-72
2021/04/06 07:45:26;;;;;;;;;;;;;;;8.04;61.02;99161.47;1782140;79;21115;-72
2021/04/06 07:48:02;;;;;;;;;;;;;;;8.09;60.82;99157.59;1803469;78;21011;-72
2021/04/06 07:50:44;;;;;;;;;;;;;;;8.15;60.69;99159.69;1785473;80;20297;-72
2021/04/06 07:53:29;;;;;;;;;;;;;;;8.17;60.70;99155.94;1780226;78;20222;-72
2021/04/06 07:56:00;;;;;;;;;;;;;;;8.18;60.87;99162.03;1783061;79;22109;-72
2021/04/06 07:58:47;;;;;;;;;;;;;;;8.20;60.97;99151.75;1770608;79;20388;-73
2021/04/06 08:01:26;;;;;;;;;;;;;;;8.32;60.83;99153.27;1807448;78;20297;-73
2021/04/06 08:03:59;;;;;;;;;;;;;;;8.49;60.24;99157.52;1783595;79;20472;-72
2021/04/06 08:06:28;;;;;;;;;;;;;;;8.59;59.71;99157.89;1796406;78;20263;-72
2021/04/06 08:08:55;;;;;;;;;;;;;;;8.69;60.15;99156.58;1800378;78;22014;-71
2021/04/06 08:11:59;;;;;;;;;;;;;;;8.91;59.62;99162.50;1780883;79;21047;-72
2021/04/06 08:14:26;;;;;;;;;;;;;;;8.96;58.95;99158.95;1718625;82;20265;-70
2021/04/06 08:17:14;;;;;;;;;;;;;;;8.94;59.02;99165.68;1746119;79;21183;-72
2021/04/06 08:19:59;;;;;;;;;;;;;;;8.90;58.85;99155.09;1797649;79;20213;-70
2021/04/06 08:22:45;;;;;;;;;;;;;;;8.90;58.58;99149.83;1808350;79;22115;-69
2021/04/06 08:25:26;;;;;;;;;;;;;;;9.06;58.40;99160.59;1808137;79;20214;-70
2021/04/06 08:27:59;;;;;;;;;;;;;;;9.15;57.67;99172.08;1808304;78;20432;-70
2021/04/06 08:30:32;;;;;;;;;;;;;;;9.17;57.52;99159.62;1789197;79;20477;-71
2021/04/06 08:33:03;;;;;;;;;;;;;;;9.22;57.35;99150.79;1799934;78;20220;-70
2021/04/06 08:35:49;;;;;;;;;;;;;;;9.34;57.56;99152.76;1782231;79;22071;-71
2021/04/06 08:38:36;;;;;;;;;;;;;;;9.54;57.68;99144.29;1773252;79;20219;-71
2021/04/06 08:41:46;;;;;;;;;;;;;;;9.73;56.45;99133.66;1774009;79;20299;-70
2021/04/06 08:44:15;;;;;;;;;;;;;;;9.88;56.13;99153.79;1768701;79;20283;-70
2021/04/06 08:46:48;;;;;;;;;;;;;;;10.06;55.53;99138.00;1742803;79;20266;-70
2021/04/06 08:49:25;;;;;;;;;;;;;;;10.23;54.88;99136.73;1786414;79;22065;-69
2021/04/06 08:51:57;;;;;;;;;;;;;;;10.38;54.04;99125.16;1792051;79;21245;-70
2021/04/06 08:54:28;;;;;;;;;;;;;;;10.55;53.27;99122.17;1800599;79;20225;-70
2021/04/06 08:57:00;;;;;;;;;;;;;;;10.68;52.76;99125.73;1790547;79;20370;-69
2021/04/06 08:59:43;;;;;;;;;;;;;;;10.76;52.52;99127.13;1773410;79;20280;-69
2021/04/06 09:02:12;;;;;;;;;;;;;;;10.84;51.52;99140.41;1796056;79;22067;-70
2021/04/06 09:04:48;;;;;;;;;;;;;;;10.90;50.84;99130.52;1789916;79;20352;-70
2021/04/06 09:07:20;;;;;;;;;;;;;;;10.93;50.93;99124.95;1773434;80;20829;-70
2021/04/06 09:09:50;;;;;;;;;;;;;;;11.03;51.17;99126.17;1774543;79;20493;-70
2021/04/06 09:12:18;;;;;;;;;;;;;;;11.17;50.77;99117.16;1773793;81;20232;-69
2021/04/06 09:14:46;;;;;;;;;;;;;;;11.35;50.06;99107.02;1775448;80;22084;-69
2021/04/06 09:17:16;;;;;;;;;;;;;;;11.47;50.08;99119.80;1773818;81;20232;-69
2021/04/06 09:19:47;;;;;;;;;;;;;;;11.52;49.01;99116.70;1779806;79;20389;-69
2021/04/06 09:22:17;;;;;;;;;;;;;;;11.64;48.10;99124.67;1785617;79;20247;-75
2021/04/06 09:24:45;;;;;;;;;;;;;;;11.63;47.34;99134.09;1788494;79;20289;-74
2021/04/06 09:27:12;;;;;;;;;;;;;;;11.51;46.80;99129.59;1798347;78;21885;-74
2021/04/06 09:29:42;;;;;;;;;;;;;;;11.52;47.27;99135.70;1778450;79;20346;-75
2021/04/06 09:32:11;;;;;;;;;;;;;;;11.60;47.34;99119.38;1767076;79;20284;-76
2021/04/06 09:34:40;;;;;;;;;;;;;;;11.68;47.28;99133.97;1782690;79;20481;-74
2021/04/06 09:37:17;;;;;;;;;;;;;;;11.59;46.39;99122.19;1775488;80;20740;-75
2021/04/06 09:39:47;;;;;;;;;;;;;;;11.51;47.10;99118.19;1779284;79;22104;-75
2021/04/06 09:42:14;;;;;;;;;;;;;;;11.57;47.72;99118.85;1771598;79;21314;-75
2021/04/06 09:44:43;;;;;;;;;;;;;;;11.75;46.27;99115.63;1746777;80;20269;-75
2021/04/06 09:47:12;;;;;;;;;;;;;;;11.90;46.22;99113.23;1781201;79;20316;-75
2021/04/06 09:49:41;;;;;;;;;;;;;;;11.98;46.04;99110.63;1796185;79;20259;-74
2021/04/06 09:52:15;;;;;;;;;;;;;;;11.88;46.07;99100.67;1784280;79;22985;-75
2021/04/06 09:54:47;;;;;;;;;;;;;;;11.95;46.15;99107.78;1779823;79;20234;-73
2021/04/06 09:57:14;;;;;;;;;;;;;;;12.16;44.95;99113.11;1782869;79;20286;-73
2021/04/06 09:59:53;;;;;;;;;;;;;;;12.22;43.99;99119.09;1787005;79;20474;-73
2021/04/06 10:02:22;;;;;;;;;;;;;;;12.11;44.45;99110.14;1754409;79;20286;-72
2021/04/06 10:04:51;;;;;;;;;;;;;;;11.95;44.53;99102.48;1775541;79;22798;-71
2021/04/06 10:07:29;;;;;;;;;;;;;;;11.84;44.98;99096.17;1770253;79;20400;-72
2021/04/06 10:10:00;;;;;;;;;;;;;;;11.82;43.95;99097.34;1729501;80;20506;-72
2021/04/06 10:12:29;;;;;;;;;;;;;;;11.81;43.69;99105.77;1789259;79;20511;-72
2021/04/06 10:14:56;;;;;;;;;;;;;;;11.97;43.93;99106.32;1779458;79;20211;-71
2021/04/06 10:17:39;;;;;;;;;;;;;;;12.22;43.50;99119.92;1779091;79;22971;-74
2021/04/06 10:20:13;;;;;;;;;;;;;;;12.42;42.62;99099.26;1764824;80;21091;-73
2021/04/06 10:22:49;;;;;;;;;;;;;;;12.54;41.54;99095.28;1789819;78;20255;-72
2021/04/06 10:25:18;;;;;;;;;;;;;;;12.58;42.63;99091.33;1759170;80;21268;-72
2021/04/06 10:27:47;;;;;;;;;;;;;;;12.59;41.41;99094.30;1797343;78;20212;-74
2021/04/06 10:30:18;;;;;;;;;;;;;;;12.54;41.07;99082.03;1794017;78;22847;-73
2021/04/06 10:32:47;;;;;;;;;;;;;;;12.50;41.51;99073.28;1763999;80;20368;-71
2021/04/06 10:35:27;;;;;;;;;;;;;;;12.41;41.54;99064.50;1766696;79;20291;-73
2021/04/06 10:37:58;;;;;;;;;;;;;;;12.28;41.46;99078.74;1767343;79;20212;-72
2021/04/06 10:40:35;;;;;;;;;;;;;;;12.23;41.33;99073.09;1768350;79;20236;-74
2021/04/06 10:43:12;;;;;;;;;;;;;;;12.30;41.90;99063.02;1756151;79;22966;-72
2021/04/06 10:45:45;;;;;;;;;;;;;;;12.55;41.40;99070.48;1788856;78;21389;-73
2021/04/06 10:48:15;;;;;;;;;;;;;;;12.65;40.96;99061.53;1749259;79;20222;-72
2021/04/06 10:50:46;;;;;;;;;;;;;;;12.54;40.54;99071.45;1743133;82;20550;-71
2021/04/06 10:53:25;;;;;;;;;;;;;;;12.48;40.82;99050.94;1768178;79;20212;-72
2021/04/06 10:55:59;;;;;;;;;;;;;;;12.53;41.52;99053.90;1742619;81;22429;-73
2021/04/06 10:58:30;;;;;;;;;;;;;;;12.75;41.04;99046.29;1780215;79;21273;-72
2021/04/06 11:01:10;;;;;;;;;;;;;;;13.08;39.06;99049.19;1770766;79;20224;-73
2021/04/06 11:03:51;;;;;;;;;;;;;;;13.35;38.35;99036.53;1772753;79;20305;-73
2021/04/06 11:06:33;;;;;;;;;;;;;;;13.54;37.56;99037.95;1767338;79;20235;-72
2021/04/06 11:09:22;;;;;;;;;;;;;;;13.56;38.27;99045.22;1768216;79;22099;-74
2021/04/06 11:11:53;;;;;;;;;;;;;;;13.52;38.23;99031.49;1773456;79;20220;-73
2021/04/06 11:14:23;;;;;;;;;;;;;;;13.51;38.33;99024.53;1773686;79;20391;-72
2021/04/06 11:16:52;;;;;;;;;;;;;;;13.44;38.80;99021.73;1768424;79;20477;-73
2021/04/06 11:19:30;;;;;;;;;;;;;;;13.38;38.43;99022.42;1778888;79;20304;-76
2021/04/06 11:21:59;;;;;;;;;;;;;;;13.29;38.91;99032.73;1774288;79;22063;-74
2021/04/06 11:24:28;;;;;;;;;;;;;;;13.34;37.66;99022.95;1782083;79;20805;-75
2021/04/06 11:26:55;;;;;;;;;;;;;;;13.33;37.86;99012.02;1774344;79;20491;-74
2021/04/06 11:29:24;;;;;;;;;;;;;;;13.20;37.90;99029.78;1775568;79;20500;-75
2021/04/06 11:31:56;;;;;;;;;;;;;;;13.13;38.40;99005.77;1804254;79;20257;-76
2021/04/06 11:34:32;;;;;;;;;;;;;;;13.17;38.84;99021.65;1799558;79;22146;-75
2021/04/06 11:37:01;;;;;;;;;;;;;;;13.10;38.83;99012.72;1808637;79;20374;-74
2021/04/06 11:39:34;;;;;;;;;;;;;;;13.08;39.38;99000.64;1807726;79;20542;-75
2021/04/06 11:42:05;;;;;;;;;;;;;;;13.14;39.12;98999.47;1808753;79;21322;-75
2021/04/06 11:44:33;;;;;;;;;;;;;;;13.20;38.43;99002.45;1808021;79;20225;-74
2021/04/06 11:47:01;;;;;;;;;;;;;;;13.12;38.62;99014.72;1808818;79;22056;-73
2021/04/06 11:49:28;;;;;;;;;;;;;;;13.02;38.79;98998.66;1808540;79;20357;-73
2021/04/06 11:51:55;;;;;;;;;;;;;;;12.93;38.87;98993.06;1806219;79;20400;-73
2021/04/06 11:54:23;;;;;;;;;;;;;;;12.86;38.76;98986.31;1780880;79;20407;-74
2021/04/06 11:56:50;;;;;;;;;;;;;;;12.86;38.04;98995.58;1796155;79;20268;-72
2021/04/06 11:59:17;;;;;;;;;;;;;;;12.81;37.87;98980.17;1794561;79;22061;-72
2021/04/06 12:01:45;;;;;;;;;;;;;;;12.78;38.21;98990.30;1776473;81;20515;-77
2021/04/06 12:04:14;;;;;;;;;;;;;;;12.72;39.22;98981.19;1800949;79;20408;-74
2021/04/06 12:06:43;;;;;;;;;;;;;;;12.73;40.23;98969.59;1808639;79;20488;-74
2021/04/06 12:09:11;;;;;;;;;;;;;;;12.71;40.57;98970.27;1777494;79;20234;-74
2021/04/06 12:11:39;;;;;;;;;;;;;;;12.69;40.25;98973.59;1808374;79;23048;-74
2021/04/06 12:14:07;;;;;;;;;;;;;;;12.64;40.12;98967.96;1792421;79;20214;-74
2021/04/06 12:16:35;;;;;;;;;;;;;;;12.73;40.34;98962.15;1802297;79;20497;-75
2021/04/06 12:19:02;;;;;;;;;;;;;;;12.94;40.81;98949.19;1790474;80;20474;-75
2021/04/06 12:21:29;;;;;;;;;;;;;;;13.15;39.36;98958.70;1780653;80;20224;-74
2021/04/06 12:23:57;;;;;;;;;;;;;;;13.14;39.14;98962.35;1790936;78;22129;-76
2021/04/06 12:26:24;;;;;;;;;;;;;;;13.11;39.34;98963.17;1823613;78;20369;-74
2021/04/06 12:28:52;;;;;;;;;;;;;;;13.07;39.50;98936.20;1808356;78;20217;-74
2021/04/06 12:31:19;;;;;;;;;;;;;;;13.06;39.60;98947.80;1807662;79;20473;-75
2021/04/06 12:33:47;;;;;;;;;;;;;;;13.02;39.44;98944.33;1808825;79;20213;-74
2021/04/06 12:36:14;;;;;;;;;;;;;;;12.97;39.67;98946.69;1772131;80;21783;-74
2021/04/06 12:38:41;;;;;;;;;;;;;;;12.98;39.15;98943.86;1758784;81;21227;-75
2021/04/06 12:41:11;;;;;;;;;;;;;;;13.05;38.97;98944.83;1757777;80;20245;-75
2021/04/06 12:43:38;;;;;;;;;;;;;;;13.13;39.13;98946.12;1759046;81;20253;-75
2021/04/06 12:46:06;;;;;;;;;;;;;;;13.13;38.65;98942.14;1755022;79;20233;-75
2021/04/06 12:48:34;;;;;;;;;;;;;;;13.11;38.99;98942.80;1768598;81;22132;-75
2021/04/06 12:51:03;;;;;;;;;;;;;;;13.07;38.62;98944.66;1761184;81;20984;-75
2021/04/06 12:53:30;;;;;;;;;;;;;;;12.97;38.97;98937.41;1741674;82;20225;-75
2021/04/06 12:55:58;;;;;;;;;;;;;;;12.87;39.30;98946.88;1741798;82;21389;-75
2021/04/06 12:58:25;;;;;;;;;;;;;;;12.77;39.72;98934.34;1741839;82;20413;-73
2021/04/06 13:00:52;;;;;;;;;;;;;;;12.69;40.20;98940.48;1748059;79;21690;-74
2021/04/06 13:03:19;;;;;;;;;;;;;;;12.61;40.58;98939.17;1770209;79;20770;-75
2021/04/06 13:05:47;;;;;;;;;;;;;;;12.54;40.86;98942.16;1765945;81;20617;-74
2021/04/06 13:08:14;;;;;;;;;;;;;;;12.45;41.02;98947.15;1762932;81;21754;-75
2021/04/06 13:10:43;;;;;;;;;;;;;;;12.39;41.35;98942.05;1765653;81;20266;-75
2021/04/06 13:13:10;;;;;;;;;;;;;;;12.32;41.54;98935.77;1759280;81;22066;-76
2021/04/06 13:15:41;;;;;;;;;;;;;;;12.28;42.05;98935.78;1770187;81;20383;-77